sensor_id;sensor_type;location;lat;lon;timestamp;pressure;altitude;pressure_sealevel;temperature;humidity
71573;BME280;59408;51.032;9.410;2023-03-13T00:01:18;98201.06;;;6.88;87.67
71573;BME280;59408;51.032;9.410;2023-03-13T00:03:45;98201.72;;;6.85;88.17
71573;BME280;59408;51.032;9.410;2023-03-13T00:06:14;98201.53;;;6.90;88.05
71573;BME280;59408;51.032;9.410;2023-03-13T00:08:40;98191.47;;;6.91;87.95
71573;BME280;59408;51.032;9.410;2023-03-13T00:11:08;98201.06;;;6.88;87.96
71573;BME280;59408;51.032;9.410;2023-03-13T00:13:36;98194.38;;;6.85;88.76
71573;BME280;59408;51.032;9.410;2023-03-13T00:16:05;98195.41;;;6.81;88.92
71573;BME280;59408;51.032;9.410;2023-03-13T00:18:31;98184.88;;;6.79;89.03
71573;BME280;59408;51.032;9.410;2023-03-13T00:20:59;98185.34;;;6.81;88.74
71573;BME280;59408;51.032;9.410;2023-03-13T00:23:27;98181.50;;;6.82;88.88
71573;BME280;59408;51.032;9.410;2023-03-13T00:25:55;98172.81;;;6.89;88.61
71573;BME280;59408;51.032;9.410;2023-03-13T00:28:22;98167.97;;;6.82;89.16
71573;BME280;59408;51.032;9.410;2023-03-13T00:30:49;98172.78;;;6.77;88.95
71573;BME280;59408;51.032;9.410;2023-03-13T00:33:15;98174.28;;;6.86;88.87
71573;BME280;59408;51.032;9.410;2023-03-13T00:35:42;98175.97;;;6.79;89.26
71573;BME280;59408;51.032;9.410;2023-03-13T00:38:09;98165.44;;;6.77;89.65
71573;BME280;59408;51.032;9.410;2023-03-13T00:40:37;98154.03;;;6.84;88.95
71573;BME280;59408;51.032;9.410;2023-03-13T00:43:03;98157.22;;;6.86;89.20
71573;BME280;59408;51.032;9.410;2023-03-13T00:45:30;98164.66;;;6.77;89.60
71573;BME280;59408;51.032;9.410;2023-03-13T00:47:57;98143.63;;;6.62;90.51
71573;BME280;59408;51.032;9.410;2023-03-13T00:50:23;98140.69;;;6.67;90.15
71573;BME280;59408;51.032;9.410;2023-03-13T00:52:50;98146.44;;;6.65;90.63
71573;BME280;59408;51.032;9.410;2023-03-13T00:55:16;98129.66;;;6.72;90.49
71573;BME280;59408;51.032;9.410;2023-03-13T00:57:44;98133.06;;;6.81;90.09
71573;BME280;59408;51.032;9.410;2023-03-13T01:00:12;98127.50;;;6.77;90.37
71573;BME280;59408;51.032;9.410;2023-03-13T01:02:40;98124.38;;;6.87;90.23
71573;BME280;59408;51.032;9.410;2023-03-13T01:05:08;98116.22;;;6.87;89.93
71573;BME280;59408;51.032;9.410;2023-03-13T01:07:35;98116.47;;;6.95;90.11
71573;BME280;59408;51.032;9.410;2023-03-13T01:10:02;98109.81;;;7.04;89.76
71573;BME280;59408;51.032;9.410;2023-03-13T01:12:29;98111.50;;;7.09;89.45
71573;BME280;59408;51.032;9.410;2023-03-13T01:14:57;98106.75;;;7.06;89.86
71573;BME280;59408;51.032;9.410;2023-03-13T01:17:23;98086.31;;;7.08;89.80
71573;BME280;59408;51.032;9.410;2023-03-13T01:19:50;98089.13;;;7.12;89.48
71573;BME280;59408;51.032;9.410;2023-03-13T01:22:17;98074.09;;;7.26;88.97
71573;BME280;59408;51.032;9.410;2023-03-13T01:24:43;98062.00;;;7.24;89.38
71573;BME280;59408;51.032;9.410;2023-03-13T01:27:10;98064.38;;;7.25;88.95
71573;BME280;59408;51.032;9.410;2023-03-13T01:29:37;98052.16;;;7.19;89.67
71573;BME280;59408;51.032;9.410;2023-03-13T01:32:05;98043.56;;;7.30;89.05
71573;BME280;59408;51.032;9.410;2023-03-13T01:34:32;98040.66;;;7.35;88.98
71573;BME280;59408;51.032;9.410;2023-03-13T01:36:58;98033.06;;;7.40;88.48
71573;BME280;59408;51.032;9.410;2023-03-13T01:39:25;98029.34;;;7.45;88.45
71573;BME280;59408;51.032;9.410;2023-03-13T01:41:52;98018.72;;;7.40;88.47
71573;BME280;59408;51.032;9.410;2023-03-13T01:44:21;98014.88;;;7.41;88.61
71573;BME280;59408;51.032;9.410;2023-03-13T01:46:48;97999.97;;;7.35;89.11
71573;BME280;59408;51.032;9.410;2023-03-13T01:49:18;98016.34;;;7.38;88.85
71573;BME280;59408;51.032;9.410;2023-03-13T01:51:49;98011.50;;;7.32;89.59
71573;BME280;59408;51.032;9.410;2023-03-13T01:54:21;97999.75;;;7.27;89.75
71573;BME280;59408;51.032;9.410;2023-03-13T01:56:51;98006.19;;;7.23;90.00
71573;BME280;59408;51.032;9.410;2023-03-13T01:59:21;98007.78;;;7.36;89.67
71573;BME280;59408;51.032;9.410;2023-03-13T02:01:49;97999.28;;;7.38;89.17
71573;BME280;59408;51.032;9.410;2023-03-13T02:04:20;98003.09;;;7.49;89.00
71573;BME280;59408;51.032;9.410;2023-03-13T02:06:51;97996.88;;;7.48;89.17
71573;BME280;59408;51.032;9.410;2023-03-13T02:09:22;97984.44;;;7.47;89.22
71573;BME280;59408;51.032;9.410;2023-03-13T02:11:54;97978.00;;;7.52;89.07
71573;BME280;59408;51.032;9.410;2023-03-13T02:14:24;97984.22;;;7.52;89.21
71573;BME280;59408;51.032;9.410;2023-03-13T02:16:53;97971.34;;;7.49;89.23
71573;BME280;59408;51.032;9.410;2023-03-13T02:19:27;97976.75;;;7.49;89.42
71573;BME280;59408;51.032;9.410;2023-03-13T02:22:01;97973.81;;;7.54;89.46
71573;BME280;59408;51.032;9.410;2023-03-13T02:24:37;97976.81;;;7.65;88.64
71573;BME280;59408;51.032;9.410;2023-03-13T02:27:06;97964.41;;;7.64;88.28
71573;BME280;59408;51.032;9.410;2023-03-13T02:29:33;97945.63;;;7.59;88.88
71573;BME280;59408;51.032;9.410;2023-03-13T02:31:59;97940.88;;;7.56;89.18
71573;BME280;59408;51.032;9.410;2023-03-13T02:34:29;97932.19;;;7.62;88.83
71573;BME280;59408;51.032;9.410;2023-03-13T02:36:58;97948.91;;;7.65;88.75
71573;BME280;59408;51.032;9.410;2023-03-13T02:39:26;97935.91;;;7.58;88.84
71573;BME280;59408;51.032;9.410;2023-03-13T02:41:53;97931.84;;;7.64;88.89
71573;BME280;59408;51.032;9.410;2023-03-13T02:44:22;97928.22;;;7.60;89.01
71573;BME280;59408;51.032;9.410;2023-03-13T02:46:50;97934.88;;;7.62;88.99
71573;BME280;59408;51.032;9.410;2023-03-13T02:49:20;97928.31;;;7.63;88.97
71573;BME280;59408;51.032;9.410;2023-03-13T02:51:47;97922.09;;;7.63;88.88
71573;BME280;59408;51.032;9.410;2023-03-13T02:54:17;97903.44;;;7.61;89.01
71573;BME280;59408;51.032;9.410;2023-03-13T02:56:46;97904.06;;;7.55;89.44
71573;BME280;59408;51.032;9.410;2023-03-13T02:59:13;97911.75;;;7.53;89.77
71573;BME280;59408;51.032;9.410;2023-03-13T03:01:41;97899.84;;;7.57;89.66
71573;BME280;59408;51.032;9.410;2023-03-13T03:04:08;97892.94;;;7.60;89.62
71573;BME280;59408;51.032;9.410;2023-03-13T03:06:34;97882.53;;;7.62;89.62
71573;BME280;59408;51.032;9.410;2023-03-13T03:09:01;97866.78;;;7.68;89.45
71573;BME280;59408;51.032;9.410;2023-03-13T03:11:28;97878.69;;;7.63;89.87
71573;BME280;59408;51.032;9.410;2023-03-13T03:13:55;97865.69;;;7.56;89.99
71573;BME280;59408;51.032;9.410;2023-03-13T03:16:21;97868.25;;;7.65;89.57
71573;BME280;59408;51.032;9.410;2023-03-13T03:18:49;97853.28;;;7.55;90.54
71573;BME280;59408;51.032;9.410;2023-03-13T03:21:16;97835.97;;;7.60;90.22
71573;BME280;59408;51.032;9.410;2023-03-13T03:23:42;97830.53;;;7.60;90.39
71573;BME280;59408;51.032;9.410;2023-03-13T03:26:09;97832.09;;;7.61;90.47
71573;BME280;59408;51.032;9.410;2023-03-13T03:28:36;97831.84;;;7.66;90.54
71573;BME280;59408;51.032;9.410;2023-03-13T03:31:03;97824.25;;;7.72;90.68
71573;BME280;59408;51.032;9.410;2023-03-13T03:33:30;97809.59;;;7.60;91.81
71573;BME280;59408;51.032;9.410;2023-03-13T03:36:00;97803.84;;;7.62;92.55
71573;BME280;59408;51.032;9.410;2023-03-13T03:38:26;97809.50;;;7.57;93.13
71573;BME280;59408;51.032;9.410;2023-03-13T03:40:53;97810.91;;;7.51;93.71
71573;BME280;59408;51.032;9.410;2023-03-13T03:43:20;97812.50;;;7.52;94.30
71573;BME280;59408;51.032;9.410;2023-03-13T03:45:46;97826.56;;;7.57;94.82
71573;BME280;59408;51.032;9.410;2023-03-13T03:48:13;97798.94;;;7.52;95.56
71573;BME280;59408;51.032;9.410;2023-03-13T03:50:40;97809.59;;;7.45;97.22
71573;BME280;59408;51.032;9.410;2023-03-13T03:53:08;97795.75;;;7.34;98.74
71573;BME280;59408;51.032;9.410;2023-03-13T03:55:35;97808.31;;;7.26;99.93
71573;BME280;59408;51.032;9.410;2023-03-13T03:58:01;97800.06;;;7.23;100.00
71573;BME280;59408;51.032;9.410;2023-03-13T04:00:28;97803.03;;;7.18;100.00
71573;BME280;59408;51.032;9.410;2023-03-13T04:02:54;97797.22;;;7.04;100.00
71573;BME280;59408;51.032;9.410;2023-03-13T04:05:22;97802.97;;;7.02;100.00
71573;BME280;59408;51.032;9.410;2023-03-13T04:07:49;97803.59;;;6.96;100.00
71573;BME280;59408;51.032;9.410;2023-03-13T04:10:17;97796.91;;;6.93;100.00
71573;BME280;59408;51.032;9.410;2023-03-13T04:12:43;97781.44;;;6.94;100.00
71573;BME280;59408;51.032;9.410;2023-03-13T04:15:10;97779.44;;;6.91;100.00
71573;BME280;59408;51.032;9.410;2023-03-13T04:17:37;97779.06;;;6.92;100.00
71573;BME280;59408;51.032;9.410;2023-03-13T04:20:05;97757.50;;;6.96;100.00
71573;BME280;59408;51.032;9.410;2023-03-13T04:22:31;97752.69;;;6.89;100.00
71573;BME280;59408;51.032;9.410;2023-03-13T04:24:58;97747.00;;;6.94;100.00
71573;BME280;59408;51.032;9.410;2023-03-13T04:27:26;97734.50;;;6.89;100.00
71573;BME280;59408;51.032;9.410;2023-03-13T04:29:52;97720.22;;;6.93;100.00
71573;BME280;59408;51.032;9.410;2023-03-13T04:32:19;97710.38;;;7.00;100.00
71573;BME280;59408;51.032;9.410;2023-03-13T04:34:46;97704.44;;;7.10;100.00
71573;BME280;59408;51.032;9.410;2023-03-13T04:37:12;97716.97;;;7.15;100.00
71573;BME280;59408;51.032;9.410;2023-03-13T04:39:39;97723.50;;;7.14;100.00
71573;BME280;59408;51.032;9.410;2023-03-13T04:42:06;97739.44;;;7.15;100.00
71573;BME280;59408;51.032;9.410;2023-03-13T04:44:34;97713.97;;;7.20;100.00
71573;BME280;59408;51.032;9.410;2023-03-13T04:47:00;97727.13;;;7.18;100.00
71573;BME280;59408;51.032;9.410;2023-03-13T04:49:27;97713.72;;;7.25;100.00
71573;BME280;59408;51.032;9.410;2023-03-13T04:51:54;97714.97;;;7.27;100.00
71573;BME280;59408;51.032;9.410;2023-03-13T04:54:21;97696.53;;;7.33;100.00
71573;BME280;59408;51.032;9.410;2023-03-13T04:56:48;97710.59;;;7.39;100.00
71573;BME280;59408;51.032;9.410;2023-03-13T04:59:15;97699.06;;;7.42;100.00
71573;BME280;59408;51.032;9.410;2023-03-13T05:01:43;97693.28;;;7.43;100.00
71573;BME280;59408;51.032;9.410;2023-03-13T05:04:10;97690.56;;;7.43;100.00
71573;BME280;59408;51.032;9.410;2023-03-13T05:06:37;97670.53;;;7.48;100.00
71573;BME280;59408;51.032;9.410;2023-03-13T05:09:04;97672.25;;;7.56;100.00
71573;BME280;59408;51.032;9.410;2023-03-13T05:11:30;97681.72;;;7.62;100.00
71573;BME280;59408;51.032;9.410;2023-03-13T05:13:57;97680.31;;;7.68;100.00
71573;BME280;59408;51.032;9.410;2023-03-13T05:16:23;97674.44;;;7.66;100.00
71573;BME280;59408;51.032;9.410;2023-03-13T05:18:51;97653.16;;;7.68;100.00
71573;BME280;59408;51.032;9.410;2023-03-13T05:21:18;97654.47;;;7.74;100.00
71573;BME280;59408;51.032;9.410;2023-03-13T05:23:45;97651.03;;;7.77;100.00
71573;BME280;59408;51.032;9.410;2023-03-13T05:26:11;97631.84;;;7.86;100.00
71573;BME280;59408;51.032;9.410;2023-03-13T05:28:38;97629.91;;;7.86;100.00
71573;BME280;59408;51.032;9.410;2023-03-13T05:31:05;97624.44;;;7.83;100.00
71573;BME280;59408;51.032;9.410;2023-03-13T05:33:31;97644.72;;;7.89;100.00
71573;BME280;59408;51.032;9.410;2023-03-13T05:35:59;97637.78;;;7.91;100.00
71573;BME280;59408;51.032;9.410;2023-03-13T05:38:26;97639.72;;;7.91;100.00
71573;BME280;59408;51.032;9.410;2023-03-13T05:40:53;97644.38;;;7.90;100.00
71573;BME280;59408;51.032;9.410;2023-03-13T05:43:19;97640.72;;;8.02;100.00
71573;BME280;59408;51.032;9.410;2023-03-13T05:45:46;97638.72;;;7.99;100.00
71573;BME280;59408;51.032;9.410;2023-03-13T05:48:12;97655.28;;;7.94;100.00
71573;BME280;59408;51.032;9.410;2023-03-13T05:50:39;97649.44;;;7.92;100.00
71573;BME280;59408;51.032;9.410;2023-03-13T05:53:07;97650.19;;;7.92;100.00
71573;BME280;59408;51.032;9.410;2023-03-13T05:55:34;97662.28;;;7.95;100.00
71573;BME280;59408;51.032;9.410;2023-03-13T05:58:00;97676.31;;;7.97;100.00
71573;BME280;59408;51.032;9.410;2023-03-13T06:00:27;97650.38;;;7.99;100.00
71573;BME280;59408;51.032;9.410;2023-03-13T06:02:54;97653.44;;;7.98;100.00
71573;BME280;59408;51.032;9.410;2023-03-13T06:05:20;97657.00;;;8.02;100.00
71573;BME280;59408;51.032;9.410;2023-03-13T06:07:48;97646.94;;;8.02;100.00
71573;BME280;59408;51.032;9.410;2023-03-13T06:10:16;97644.16;;;7.99;100.00
71573;BME280;59408;51.032;9.410;2023-03-13T06:12:43;97611.13;;;7.97;100.00
71573;BME280;59408;51.032;9.410;2023-03-13T06:15:10;97618.16;;;7.98;100.00
71573;BME280;59408;51.032;9.410;2023-03-13T06:17:37;97623.72;;;8.05;100.00
71573;BME280;59408;51.032;9.410;2023-03-13T06:20:05;97614.44;;;8.06;100.00
71573;BME280;59408;51.032;9.410;2023-03-13T06:22:32;97606.78;;;8.12;100.00
71573;BME280;59408;51.032;9.410;2023-03-13T06:24:58;97597.34;;;8.25;100.00
71573;BME280;59408;51.032;9.410;2023-03-13T06:27:26;97600.84;;;8.25;100.00
71573;BME280;59408;51.032;9.410;2023-03-13T06:29:53;97596.69;;;8.31;100.00
71573;BME280;59408;51.032;9.410;2023-03-13T06:32:20;97595.13;;;8.30;100.00
71573;BME280;59408;51.032;9.410;2023-03-13T06:34:46;97606.72;;;8.27;100.00
71573;BME280;59408;51.032;9.410;2023-03-13T06:37:13;97614.50;;;8.29;100.00
71573;BME280;59408;51.032;9.410;2023-03-13T06:39:40;97610.28;;;8.31;100.00
71573;BME280;59408;51.032;9.410;2023-03-13T06:42:07;97622.44;;;8.37;100.00
71573;BME280;59408;51.032;9.410;2023-03-13T06:44:35;97649.31;;;8.43;100.00
71573;BME280;59408;51.032;9.410;2023-03-13T06:47:01;97650.09;;;8.43;100.00
71573;BME280;59408;51.032;9.410;2023-03-13T06:49:28;97623.78;;;8.47;100.00
71573;BME280;59408;51.032;9.410;2023-03-13T06:51:56;97629.94;;;8.44;100.00
71573;BME280;59408;51.032;9.410;2023-03-13T06:54:23;97622.28;;;8.50;100.00
71573;BME280;59408;51.032;9.410;2023-03-13T06:56:50;97615.63;;;8.47;100.00
71573;BME280;59408;51.032;9.410;2023-03-13T06:59:16;97620.28;;;8.47;100.00
71573;BME280;59408;51.032;9.410;2023-03-13T07:01:44;97607.19;;;8.52;100.00
71573;BME280;59408;51.032;9.410;2023-03-13T07:04:12;97617.97;;;8.49;100.00
71573;BME280;59408;51.032;9.410;2023-03-13T07:06:39;97603.25;;;8.50;100.00
71573;BME280;59408;51.032;9.410;2023-03-13T07:09:05;97611.13;;;8.55;100.00
71573;BME280;59408;51.032;9.410;2023-03-13T07:11:32;97610.47;;;8.61;100.00
71573;BME280;59408;51.032;9.410;2023-03-13T07:13:59;97615.19;;;8.64;100.00
71573;BME280;59408;51.032;9.410;2023-03-13T07:16:41;97617.69;;;8.73;100.00
71573;BME280;59408;51.032;9.410;2023-03-13T07:19:09;97610.34;;;8.77;100.00
71573;BME280;59408;51.032;9.410;2023-03-13T07:21:36;97610.78;;;8.79;100.00
71573;BME280;59408;51.032;9.410;2023-03-13T07:24:03;97606.22;;;8.83;100.00
71573;BME280;59408;51.032;9.410;2023-03-13T07:26:30;97619.81;;;8.83;100.00
71573;BME280;59408;51.032;9.410;2023-03-13T07:28:57;97621.34;;;8.84;100.00
71573;BME280;59408;51.032;9.410;2023-03-13T07:31:23;97613.34;;;8.91;100.00
71573;BME280;59408;51.032;9.410;2023-03-13T07:33:50;97618.38;;;8.93;100.00
71573;BME280;59408;51.032;9.410;2023-03-13T07:36:18;97629.25;;;8.93;100.00
71573;BME280;59408;51.032;9.410;2023-03-13T07:38:46;97616.88;;;8.95;100.00
71573;BME280;59408;51.032;9.410;2023-03-13T07:41:13;97619.31;;;9.00;100.00
71573;BME280;59408;51.032;9.410;2023-03-13T07:43:40;97608.84;;;9.02;100.00
71573;BME280;59408;51.032;9.410;2023-03-13T07:46:09;97621.38;;;9.07;100.00
71573;BME280;59408;51.032;9.410;2023-03-13T07:48:38;97619.47;;;9.11;100.00
71573;BME280;59408;51.032;9.410;2023-03-13T07:51:06;97617.25;;;9.17;100.00
71573;BME280;59408;51.032;9.410;2023-03-13T07:53:34;97624.63;;;9.16;100.00
71573;BME280;59408;51.032;9.410;2023-03-13T07:56:03;97620.91;;;9.24;100.00
71573;BME280;59408;51.032;9.410;2023-03-13T07:58:31;97616.66;;;9.27;100.00
71573;BME280;59408;51.032;9.410;2023-03-13T08:00:58;97619.06;;;9.32;100.00
71573;BME280;59408;51.032;9.410;2023-03-13T08:03:26;97616.00;;;9.33;100.00
71573;BME280;59408;51.032;9.410;2023-03-13T08:05:59;97606.75;;;9.38;100.00
71573;BME280;59408;51.032;9.410;2023-03-13T08:08:27;97617.31;;;9.43;100.00
71573;BME280;59408;51.032;9.410;2023-03-13T08:11:00;97629.81;;;9.47;100.00
71573;BME280;59408;51.032;9.410;2023-03-13T08:13:26;97624.84;;;9.53;100.00
71573;BME280;59408;51.032;9.410;2023-03-13T08:16:01;97655.25;;;9.59;100.00
71573;BME280;59408;51.032;9.410;2023-03-13T08:18:28;97631.97;;;9.61;100.00
71573;BME280;59408;51.032;9.410;2023-03-13T08:20:55;97634.69;;;9.61;100.00
71573;BME280;59408;51.032;9.410;2023-03-13T08:23:21;97642.53;;;9.66;100.00
71573;BME280;59408;51.032;9.410;2023-03-13T08:25:48;97621.91;;;9.65;100.00
71573;BME280;59408;51.032;9.410;2023-03-13T08:28:16;97646.41;;;9.65;100.00
71573;BME280;59408;51.032;9.410;2023-03-13T08:30:42;97634.69;;;9.61;100.00
71573;BME280;59408;51.032;9.410;2023-03-13T08:33:09;97646.00;;;9.63;100.00
71573;BME280;59408;51.032;9.410;2023-03-13T08:35:35;97646.78;;;9.64;100.00
71573;BME280;59408;51.032;9.410;2023-03-13T08:38:02;97645.63;;;9.65;100.00
71573;BME280;59408;51.032;9.410;2023-03-13T08:40:29;97649.09;;;9.62;100.00
71573;BME280;59408;51.032;9.410;2023-03-13T08:42:55;97656.53;;;9.65;100.00
71573;BME280;59408;51.032;9.410;2023-03-13T08:45:26;97644.09;;;9.67;100.00
71573;BME280;59408;51.032;9.410;2023-03-13T08:47:53;97651.97;;;9.72;100.00
71573;BME280;59408;51.032;9.410;2023-03-13T08:50:19;97655.56;;;9.80;100.00
71573;BME280;59408;51.032;9.410;2023-03-13T08:52:46;97636.97;;;9.85;100.00
71573;BME280;59408;51.032;9.410;2023-03-13T08:55:12;97656.13;;;9.93;100.00
71573;BME280;59408;51.032;9.410;2023-03-13T08:57:39;97646.94;;;10.01;100.00
71573;BME280;59408;51.032;9.410;2023-03-13T09:00:07;97641.16;;;10.06;100.00
71573;BME280;59408;51.032;9.410;2023-03-13T09:02:35;97642.78;;;10.10;100.00
71573;BME280;59408;51.032;9.410;2023-03-13T09:05:02;97626.44;;;10.10;100.00
71573;BME280;59408;51.032;9.410;2023-03-13T09:07:28;97627.94;;;10.08;100.00
71573;BME280;59408;51.032;9.410;2023-03-13T09:09:55;97621.34;;;10.09;100.00
71573;BME280;59408;51.032;9.410;2023-03-13T09:12:22;97613.63;;;10.14;100.00
71573;BME280;59408;51.032;9.410;2023-03-13T09:14:56;97629.38;;;10.28;100.00
71573;BME280;59408;51.032;9.410;2023-03-13T09:17:23;97622.88;;;10.40;100.00
71573;BME280;59408;51.032;9.410;2023-03-13T09:19:51;97607.88;;;10.56;100.00
71573;BME280;59408;51.032;9.410;2023-03-13T09:22:25;97610.53;;;10.83;98.95
71573;BME280;59408;51.032;9.410;2023-03-13T09:24:52;97605.06;;;11.30;96.30
71573;BME280;59408;51.032;9.410;2023-03-13T09:27:19;97604.97;;;11.71;94.42
71573;BME280;59408;51.032;9.410;2023-03-13T09:29:45;97585.50;;;11.80;92.30
71573;BME280;59408;51.032;9.410;2023-03-13T09:32:12;97598.47;;;11.97;91.27
71573;BME280;59408;51.032;9.410;2023-03-13T09:34:38;97580.19;;;12.08;90.96
71573;BME280;59408;51.032;9.410;2023-03-13T09:37:06;97573.13;;;12.03;91.38
71573;BME280;59408;51.032;9.410;2023-03-13T09:39:33;97569.97;;;11.94;91.18
71573;BME280;59408;51.032;9.410;2023-03-13T09:42:04;97581.63;;;11.84;92.90
71573;BME280;59408;51.032;9.410;2023-03-13T09:44:39;97574.19;;;11.74;93.06
71573;BME280;59408;51.032;9.410;2023-03-13T09:47:10;97574.94;;;11.71;93.52
71573;BME280;59408;51.032;9.410;2023-03-13T09:49:40;97573.03;;;11.82;93.03
71573;BME280;59408;51.032;9.410;2023-03-13T09:52:15;97590.94;;;11.76;92.33
71573;BME280;59408;51.032;9.410;2023-03-13T09:54:47;97588.13;;;11.62;92.08
71573;BME280;59408;51.032;9.410;2023-03-13T09:57:21;97595.47;;;11.51;92.72
71573;BME280;59408;51.032;9.410;2023-03-13T09:59:53;97574.78;;;11.50;92.88
71573;BME280;59408;51.032;9.410;2023-03-13T10:02:27;97555.25;;;11.48;92.63
71573;BME280;59408;51.032;9.410;2023-03-13T10:05:00;97568.53;;;11.49;92.78
71573;BME280;59408;51.032;9.410;2023-03-13T10:07:29;97547.06;;;11.48;92.80
71573;BME280;59408;51.032;9.410;2023-03-13T10:09:55;97560.34;;;11.46;92.13
71573;BME280;59408;51.032;9.410;2023-03-13T10:12:25;97558.00;;;11.44;92.78
71573;BME280;59408;51.032;9.410;2023-03-13T10:15:02;97558.38;;;11.43;93.12
71573;BME280;59408;51.032;9.410;2023-03-13T10:17:34;97560.69;;;11.41;93.26
71573;BME280;59408;51.032;9.410;2023-03-13T10:20:12;97571.59;;;11.41;93.61
71573;BME280;59408;51.032;9.410;2023-03-13T10:22:44;97568.09;;;11.40;93.31
71573;BME280;59408;51.032;9.410;2023-03-13T10:25:20;97563.78;;;11.35;92.96
71573;BME280;59408;51.032;9.410;2023-03-13T10:27:50;97559.06;;;11.32;93.48
71573;BME280;59408;51.032;9.410;2023-03-13T10:30:21;97565.34;;;11.36;93.29
71573;BME280;59408;51.032;9.410;2023-03-13T10:32:48;97575.16;;;11.45;92.93
71573;BME280;59408;51.032;9.410;2023-03-13T10:35:20;97570.06;;;11.43;93.26
71573;BME280;59408;51.032;9.410;2023-03-13T10:37:48;97568.53;;;11.46;93.09
71573;BME280;59408;51.032;9.410;2023-03-13T10:40:20;97573.22;;;11.49;93.07
71573;BME280;59408;51.032;9.410;2023-03-13T10:42:48;97579.91;;;11.55;92.52
71573;BME280;59408;51.032;9.410;2023-03-13T10:45:18;97562.41;;;11.63;92.56
71573;BME280;59408;51.032;9.410;2023-03-13T10:47:53;97569.81;;;11.66;92.04
71573;BME280;59408;51.032;9.410;2023-03-13T10:50:22;97595.19;;;11.66;91.97
71573;BME280;59408;51.032;9.410;2023-03-13T10:52:51;97564.38;;;11.69;92.32
71573;BME280;59408;51.032;9.410;2023-03-13T10:55:20;97581.56;;;11.70;91.51
71573;BME280;59408;51.032;9.410;2023-03-13T10:57:56;97570.66;;;11.77;92.04
71573;BME280;59408;51.032;9.410;2023-03-13T11:00:29;97550.41;;;11.85;91.10
71573;BME280;59408;51.032;9.410;2023-03-13T11:02:55;97554.72;;;11.93;91.38
71573;BME280;59408;51.032;9.410;2023-03-13T11:05:32;97534.97;;;12.25;89.97
71573;BME280;59408;51.032;9.410;2023-03-13T11:08:19;97540.09;;;12.37;88.99
71573;BME280;59408;51.032;9.410;2023-03-13T11:10:57;97533.81;;;12.26;88.30
71573;BME280;59408;51.032;9.410;2023-03-13T11:13:29;97534.16;;;12.21;89.57
71573;BME280;59408;51.032;9.410;2023-03-13T11:16:16;97522.47;;;12.17;90.03
71573;BME280;59408;51.032;9.410;2023-03-13T11:21:44;97516.53;;;12.11;90.45
71573;BME280;59408;51.032;9.410;2023-03-13T11:24:19;97515.03;;;12.17;89.55
71573;BME280;59408;51.032;9.410;2023-03-13T11:26:55;97520.91;;;12.19;89.70
71573;BME280;59408;51.032;9.410;2023-03-13T11:29:37;97532.63;;;12.20;89.79
71573;BME280;59408;51.032;9.410;2023-03-13T11:32:17;97514.66;;;12.19;90.33
71573;BME280;59408;51.032;9.410;2023-03-13T11:34:48;97515.81;;;12.14;91.34
71573;BME280;59408;51.032;9.410;2023-03-13T11:37:19;97506.84;;;12.17;91.38
71573;BME280;59408;51.032;9.410;2023-03-13T11:39:54;97513.41;;;12.12;91.24
71573;BME280;59408;51.032;9.410;2023-03-13T11:42:42;97496.69;;;12.18;91.37
71573;BME280;59408;51.032;9.410;2023-03-13T11:45:26;97518.19;;;12.19;91.58
71573;BME280;59408;51.032;9.410;2023-03-13T11:48:02;97501.38;;;12.24;91.74
71573;BME280;59408;51.032;9.410;2023-03-13T11:50:36;97512.28;;;12.21;92.12
71573;BME280;59408;51.032;9.410;2023-03-13T11:53:27;97497.84;;;12.20;92.56
71573;BME280;59408;51.032;9.410;2023-03-13T11:56:04;97502.53;;;12.16;92.90
71573;BME280;59408;51.032;9.410;2023-03-13T11:58:42;97480.66;;;12.16;93.40
71573;BME280;59408;51.032;9.410;2023-03-13T12:01:15;97484.56;;;12.15;94.59
71573;BME280;59408;51.032;9.410;2023-03-13T12:03:53;97484.16;;;12.09;94.34
71573;BME280;59408;51.032;9.410;2023-03-13T12:06:25;97481.78;;;12.11;94.67
71573;BME280;59408;51.032;9.410;2023-03-13T12:09:00;97490.41;;;12.14;94.88
71573;BME280;59408;51.032;9.410;2023-03-13T12:11:32;97500.13;;;12.00;95.55
71573;BME280;59408;51.032;9.410;2023-03-13T12:14:04;97489.94;;;11.94;97.11
71573;BME280;59408;51.032;9.410;2023-03-13T12:16:40;97486.03;;;11.88;96.72
71573;BME280;59408;51.032;9.410;2023-03-13T12:19:13;97467.69;;;11.88;98.32
71573;BME280;59408;51.032;9.410;2023-03-13T12:21:46;97467.66;;;11.85;99.52
71573;BME280;59408;51.032;9.410;2023-03-13T12:24:21;97471.16;;;11.78;99.71
71573;BME280;59408;51.032;9.410;2023-03-13T12:26:51;97457.50;;;11.74;100.00
71573;BME280;59408;51.032;9.410;2023-03-13T12:29:27;97462.56;;;11.72;99.54
71573;BME280;59408;51.032;9.410;2023-03-13T12:32:02;97457.50;;;11.82;100.00
71573;BME280;59408;51.032;9.410;2023-03-13T12:34:35;97433.31;;;11.80;99.51
71573;BME280;59408;51.032;9.410;2023-03-13T12:37:11;97430.97;;;11.79;99.58
71573;BME280;59408;51.032;9.410;2023-03-13T12:39:47;97446.16;;;11.65;100.00
71573;BME280;59408;51.032;9.410;2023-03-13T12:42:24;97434.78;;;11.60;100.00
71573;BME280;59408;51.032;9.410;2023-03-13T12:44:53;97426.22;;;11.61;100.00
71573;BME280;59408;51.032;9.410;2023-03-13T12:47:25;97425.06;;;11.62;100.00
71573;BME280;59408;51.032;9.410;2023-03-13T12:50:08;97410.28;;;11.74;100.00
71573;BME280;59408;51.032;9.410;2023-03-13T12:52:53;97398.97;;;11.79;99.99
71573;BME280;59408;51.032;9.410;2023-03-13T12:58:29;97380.25;;;12.02;98.37
71573;BME280;59408;51.032;9.410;2023-03-13T13:01:05;97397.84;;;12.05;98.05
71573;BME280;59408;51.032;9.410;2023-03-13T13:03:35;97405.66;;;12.10;97.64
71573;BME280;59408;51.032;9.410;2023-03-13T13:06:08;97376.41;;;12.14;97.18
71573;BME280;59408;51.032;9.410;2023-03-13T13:08:38;97367.41;;;12.14;97.40
71573;BME280;59408;51.032;9.410;2023-03-13T13:14:59;97376.81;;;12.16;95.72
71573;BME280;59408;51.032;9.410;2023-03-13T13:17:53;97385.00;;;12.16;96.23
71573;BME280;59408;51.032;9.410;2023-03-13T13:20:43;97384.97;;;12.12;95.80
71573;BME280;59408;51.032;9.410;2023-03-13T13:23:23;97361.94;;;12.10;95.91